Sunday, December 17, 2017, 10:12 PM EST
Back to Local

KSYR, Syracuse Hancock International Airport

Location: Syracuse, NY, United States Lat: 43.117
Local Time: 10:12 PM EST ( 3:12 GMT) Lon: -76.1
Time Zone: US/Eastern Elev: 410 ft

Show me the last for .
Show Decoded

2017-12-17 21:54 METAR KSYR 180254Z 09005KT 10SM SCT030 BKN120 OVC150 M07/M09 A3015 RMK AO2
                 PRESFR SLP215 T10671094 58025 $ =
2017-12-17 20:54 METAR KSYR 180154Z 09004KT 10SM FEW120 OVC200 M07/M09 A3020 RMK AO2 SLP231
                 T10721094 $ =
2017-12-17 19:54 METAR KSYR 180054Z 09006KT 10SM OVC200 M07/M10 A3020 RMK AO2 SLP231 T10671100 $
                 =
2017-12-17 18:54 METAR KSYR 172354Z 07004KT 10SM SCT150 OVC200 M07/M09 A3023 RMK AO2 SLP241 4/007
                 T10671094 11050 21067 50000 $ =
2017-12-17 17:54 METAR KSYR 172254Z 07003KT 10SM SCT150 OVC200 M06/M09 A3023 RMK AO2 SLP242
                 T10611089 $ =
2017-12-17 16:54 METAR KSYR 172154Z 09004KT 10SM BKN150 OVC200 M07/M09 A3024 RMK AO2 SLP244
                 T10671089 $ =
2017-12-17 15:54 METAR KSYR 172054Z 06003KT 10SM BKN180 OVC220 M06/M09 A3023 RMK AO2 SLP241
                 T10611094 58011 $ =
2017-12-17 14:54 METAR KSYR 171954Z 01004KT 10SM BKN140 OVC200 M06/M09 A3025 RMK AO2 SLP249
                 T10611094 $ =
2017-12-17 13:54 METAR KSYR 171854Z 00000KT 10SM FEW025 SCT140 OVC200 M06/M09 A3025 RMK AO2
                 SLP248 T10561089 $ =
2017-12-17 12:54 METAR KSYR 171754Z 00000KT 10SM FEW025 FEW140 BKN250 M07/M09 A3026 RMK AO2
                 SLP252 4/007 933011 60000 T10671089 11056 21150 58021 =
2017-12-17 11:54 METAR KSYR 171654Z 00000KT 10SM FEW025 FEW140 BKN250 M06/M09 A3030 RMK AO2
                 SLP264 T10561094 =
2017-12-17 10:54 METAR KSYR 171554Z 00000KT 10SM FEW025 FEW140 SCT250 M07/M10 A3033 RMK AO2 SNE13
                 SLP274 P0000 T10721100 =
2017-12-17 09:54 METAR KSYR 171454Z 00000KT 8SM -SN SCT028 SCT100 BKN140 M11/M11 A3032 RMK AO2
                 SLP273 PCPN VERY LIGHT P0000 60000 T11061106 53013 =
2017-12-17 09:36 METAR KSYR 171436Z 00000KT 8SM -SN SCT028 BKN140 M11/M11 A3032 RMK AO2 P0000
                 T11111111 =
2017-12-17 08:54 METAR KSYR 171354Z 00000KT 7SM -SN BKN027 BKN140 M12/M13 A3030 RMK AO2 SNB47
                 SLP266 PCPN VERY LIGHT P0000 T11221128 =
2017-12-17 07:54 METAR KSYR 171254Z 00000KT 10SM BKN026 BKN100 M14/M14 A3029 RMK AO2 SLP263
                 T11391139 =
2017-12-17 06:54 METAR KSYR 171154Z 00000KT 10SM FEW033 OVC100 M14/M14 A3028 RMK AO2 SLP260 4/007
                 70005 T11391144 11128 21161 53004 =
2017-12-17 05:54 METAR KSYR 171054Z 00000KT 10SM BKN030 OVC100 M13/M15 A3027 RMK AO2 SLP255 OVC V
                 BKN T11331150 =
2017-12-17 04:54 METAR KSYR 170954Z 00000KT 10SM FEW033 OVC100 M13/M13 A3027 RMK AO2 SLP254
                 T11281133 =
2017-12-17 03:54 METAR KSYR 170854Z 00000KT 10SM SCT029 SCT100 M14/M15 A3027 RMK AO2 SLP256
                 T11441150 53020 =
2017-12-17 03:33 METAR KSYR 170833Z 00000KT 10SM SCT029 SCT120 M16/M16 A3026 RMK AO2 T11561161 =
2017-12-17 03:13 METAR KSYR 170813Z 00000KT 10SM BKN029 M14/M16 A3026 RMK AO2 T11441161 =
2017-12-17 02:54 METAR KSYR 170754Z 00000KT 10SM CLR M15/M16 A3025 RMK AO2 SLP247 T11501156 =
2017-12-17 01:54 METAR KSYR 170654Z 00000KT 10SM CLR M15/M17 A3022 RMK AO2 SLP238 T11501167 =
2017-12-17 00:54 METAR KSYR 170554Z 05003KT 5SM BR CLR M13/M14 A3021 RMK AO2 SLP236 4/007
                 T11331139 11056 21133 51010 =
2017-12-16 23:54 METAR KSYR 170454Z 00000KT 7SM BCFG CLR M12/M13 A3021 RMK AO2 SLP234 T11221128
                 410331133 =
2017-12-16 23:47 METAR KSYR 170447Z 00000KT 1 3/4SM BR CLR M12/M13 A3021 RMK AO2 T11221128 =
2017-12-16 22:54 METAR KSYR 170354Z 00000KT 10SM CLR M12/M12 A3020 RMK AO2 SLP230 T11171122 =

Support USWX by starting your Amazon purchase here.